Terminal Aerodrome Forecast
Issued by NWS

Home | Current Version | Previous Version | Text Only | Print | Product List | Glossary On
Versions: 1 2 3 4 5 6 7 8 9 10 11 12 13 14 15 16 17 18 19 20 21 22 23 24
000
FTUS41 KPBZ 031734
TAFLBE
TAF
KLBE 031734Z 0318/0418 VRB03KT P6SM VCSH SCT020 BKN060
     FM032000 29005KT P6SM OVC050
     FM040500 VRB03KT 4SM BR OVC050
     FM040700 VRB03KT 1 1/2SM BR OVC050
     FM040900 VRB03KT 1/2SM FG OVC001
     FM041100 VRB03KT 1 1/2SM BR OVC001
     FM041200 00000KT 1 1/2SM BR OVC025
     FM041300 24003KT 6SM BR OVC050=

USA.gov is the U.S. government's official web portal to all federal, state and local government web resources and services.